createdAt,value
2022-11-13T00:00:00.735Z,99.99
2022-11-13T00:01:00.710Z,99.99
2022-11-13T00:02:00.710Z,99.99
2022-11-13T00:03:00.696Z,99.99
2022-11-13T00:04:00.651Z,99.99
2022-11-13T00:05:00.574Z,99.99
2022-11-13T00:06:00.520Z,99.99
2022-11-13T00:07:00.525Z,99.99
2022-11-13T00:08:00.515Z,99.99
2022-11-13T00:09:00.413Z,99.99
2022-11-13T00:10:00.439Z,99.99
2022-11-13T00:11:00.361Z,99.99
2022-11-13T00:12:00.314Z,99.99
2022-11-13T00:13:00.275Z,99.99
2022-11-13T00:14:00.307Z,99.99
2022-11-13T00:15:00.192Z,99.99
2022-11-13T00:16:00.174Z,99.99
2022-11-13T00:17:00.140Z,99.99
2022-11-13T00:18:00.099Z,99.99
2022-11-13T00:19:00.122Z,99.99
2022-11-13T00:20:00.108Z,99.99
2022-11-13T00:21:00.014Z,99.99
2022-11-13T00:21:59.962Z,99.99
2022-11-13T00:22:59.918Z,99.99
2022-11-13T00:23:59.887Z,99.99
2022-11-13T00:24:59.900Z,99.99
2022-11-13T00:25:59.809Z,99.99
2022-11-13T00:26:59.785Z,99.99
2022-11-13T00:27:59.763Z,99.99
2022-11-13T00:28:59.715Z,99.99
2022-11-13T00:29:59.761Z,99.99
2022-11-13T00:30:59.698Z,99.99
2022-11-13T00:31:59.617Z,99.99
2022-11-13T00:32:59.586Z,99.99
2022-11-13T00:34:14.483Z,99.99
2022-11-13T00:34:59.509Z,99.99
2022-11-13T00:35:59.608Z,99.99
2022-11-13T00:36:59.432Z,99.99
2022-11-13T00:37:59.388Z,99.99
2022-11-13T00:38:59.380Z,99.99
2022-11-13T00:39:59.861Z,99.99
2022-11-13T00:40:59.357Z,99.99
2022-11-13T00:41:59.313Z,99.99
2022-11-13T00:42:59.219Z,99.99
2022-11-13T00:43:59.184Z,99.99
2022-11-13T00:44:59.140Z,99.99
2022-11-13T00:45:59.118Z,99.99
2022-11-13T00:46:59.076Z,99.99
2022-11-13T00:47:59.090Z,99.99
2022-11-13T00:48:58.997Z,99.99
2022-11-13T00:49:59.040Z,99.99
2022-11-13T00:50:58.938Z,99.99
2022-11-13T00:51:58.956Z,99.99
2022-11-13T00:52:58.854Z,99.99
2022-11-13T00:53:58.838Z,99.99
2022-11-13T00:54:59.084Z,99.99
2022-11-13T00:55:58.833Z,99.99
2022-11-13T00:56:58.734Z,99.99
2022-11-13T00:57:58.692Z,99.99
2022-11-13T00:58:58.649Z,99.99
2022-11-13T00:59:58.629Z,99.99
2022-11-13T01:00:58.572Z,99.99
2022-11-13T01:01:58.651Z,99.99
2022-11-13T01:02:58.576Z,99.99
2022-11-13T01:03:58.469Z,99.99
2022-11-13T01:04:58.452Z,99.99
2022-11-13T01:05:58.394Z,99.99
2022-11-13T01:06:58.395Z,99.99
2022-11-13T01:07:58.388Z,99.99
2022-11-13T01:08:58.374Z,99.99
2022-11-13T01:09:58.272Z,99.99
2022-11-13T01:10:58.216Z,99.99
2022-11-13T01:11:58.217Z,99.99
2022-11-13T01:12:58.160Z,99.99
2022-11-13T01:13:58.211Z,99.99
2022-11-13T01:14:58.083Z,99.99
2022-11-13T01:15:58.050Z,99.99
2022-11-13T01:16:58.017Z,99.99
2022-11-13T01:17:57.973Z,99.99
2022-11-13T01:18:58.038Z,99.99
2022-11-13T01:19:57.936Z,99.99
2022-11-13T01:20:57.867Z,99.99
2022-11-13T01:21:57.825Z,99.99
2022-11-13T01:22:57.792Z,99.99
2022-11-13T01:23:57.822Z,99.99
2022-11-13T01:24:57.782Z,99.99
2022-11-13T01:25:57.684Z,99.99
2022-11-13T01:26:57.649Z,99.99
2022-11-13T01:27:57.616Z,99.99
2022-11-13T01:28:57.577Z,99.99
2022-11-13T01:29:57.599Z,99.99
2022-11-13T01:30:57.507Z,99.99
2022-11-13T01:31:57.476Z,99.99
2022-11-13T01:32:57.438Z,99.99
2022-11-13T01:33:57.400Z,99.99
2022-11-13T01:34:57.412Z,99.99
2022-11-13T01:35:57.332Z,99.99
2022-11-13T01:36:57.297Z,99.99
2022-11-13T01:37:57.284Z,99.99
2022-11-13T01:38:57.223Z,99.99
2022-11-13T01:39:57.328Z,99.99
2022-11-13T01:40:57.152Z,99.99
2022-11-13T01:41:57.117Z,99.99
2022-11-13T01:42:57.094Z,99.99
2022-11-13T01:43:57.048Z,99.99
2022-11-13T01:44:57.013Z,99.99
2022-11-13T01:45:57.054Z,99.99
2022-11-13T01:46:56.940Z,99.99
2022-11-13T01:47:56.912Z,99.99
2022-11-13T01:48:56.873Z,99.99
2022-11-13T01:49:56.830Z,99.99
2022-11-13T01:50:56.802Z,99.99
2022-11-13T01:51:56.821Z,99.99
2022-11-13T01:52:56.732Z,99.99
2022-11-13T01:53:56.703Z,99.99
2022-11-13T01:54:56.661Z,99.99
2022-11-13T01:55:56.692Z,99.99
2022-11-13T01:56:56.652Z,99.99
2022-11-13T01:57:56.552Z,99.99
2022-11-13T01:58:56.522Z,99.99
2022-11-13T01:59:56.485Z,99.99
2022-11-13T02:00:56.448Z,99.99
2022-11-13T02:01:56.472Z,99.99
2022-11-13T02:02:56.435Z,99.99
2022-11-13T02:03:56.348Z,99.99
2022-11-13T02:04:56.308Z,99.99
2022-11-13T02:05:56.280Z,99.99
2022-11-13T02:06:56.318Z,99.99
2022-11-13T02:07:56.257Z,99.99
2022-11-13T02:08:56.191Z,99.99
2022-11-13T02:09:56.145Z,99.99
2022-11-13T02:10:56.101Z,99.99
2022-11-13T02:11:56.139Z,99.99
2022-11-13T02:12:56.097Z,99.99
2022-11-13T02:13:55.998Z,99.99
2022-11-13T02:14:55.962Z,99.99
2022-11-13T02:15:55.928Z,99.99
2022-11-13T02:16:55.897Z,99.99
2022-11-13T02:17:55.866Z,99.99
2022-11-13T02:18:55.888Z,99.99
2022-11-13T02:19:55.873Z,99.99
2022-11-13T02:20:55.754Z,99.99
2022-11-13T02:21:55.725Z,99.99
2022-11-13T02:22:55.682Z,99.99
2022-11-13T02:23:55.652Z,99.99
2022-11-13T02:24:55.699Z,99.99
2022-11-13T02:25:55.583Z,99.99
2022-11-13T02:26:55.559Z,99.99
2022-11-13T02:27:55.590Z,99.99
2022-11-13T02:28:55.555Z,99.99
2022-11-13T02:29:55.452Z,99.99
2022-11-13T02:30:55.407Z,99.99
2022-11-13T02:31:55.376Z,99.99
2022-11-13T02:32:55.357Z,99.99
2022-11-13T02:33:55.310Z,99.99
2022-11-13T02:34:55.326Z,99.99
2022-11-13T02:35:55.243Z,99.99
2022-11-13T02:36:55.204Z,99.99
2022-11-13T02:37:55.173Z,99.99
2022-11-13T02:38:55.138Z,99.99
2022-11-13T02:39:55.187Z,99.99
2022-11-13T02:40:55.067Z,99.99
2022-11-13T02:41:55.036Z,99.99
2022-11-13T02:42:54.996Z,99.99
2022-11-13T02:43:55.037Z,99.99
2022-11-13T02:45:00.903Z,99.99
2022-11-13T02:45:54.959Z,99.99
2022-11-13T02:46:54.863Z,99.99
2022-11-13T02:47:54.828Z,99.99
2022-11-13T02:48:54.797Z,99.99
2022-11-13T02:49:54.763Z,99.99
2022-11-13T02:50:54.785Z,99.99
2022-11-13T02:51:54.695Z,99.99
2022-11-13T02:52:54.705Z,99.99
2022-11-13T02:53:54.623Z,99.99
2022-11-13T02:54:55.405Z,99.99
2022-11-13T02:55:54.626Z,99.99
2022-11-13T02:56:54.518Z,99.99
2022-11-13T02:57:54.487Z,99.99
2022-11-13T02:58:54.448Z,99.99
2022-11-13T02:59:54.480Z,99.99
2022-11-13T03:00:54.382Z,99.99
2022-11-13T03:01:54.459Z,99.99
2022-11-13T03:02:54.313Z,99.99
2022-11-13T03:03:58.282Z,99.99
2022-11-13T03:05:14.478Z,99.99
2022-11-13T03:05:54.214Z,99.99
2022-11-13T03:06:54.292Z,99.99
2022-11-13T03:07:54.146Z,99.99
2022-11-13T03:08:54.115Z,99.99
2022-11-13T03:09:54.076Z,99.99
2022-11-13T03:10:54.039Z,99.99
2022-11-13T03:11:54.096Z,99.99
2022-11-13T03:12:53.979Z,99.99
2022-11-13T03:13:54.049Z,99.99
2022-11-13T03:14:53.917Z,99.99
2022-11-13T03:15:53.942Z,99.99
2022-11-13T03:16:53.875Z,99.99
2022-11-13T03:17:53.863Z,99.99
2022-11-13T03:18:53.879Z,99.99
2022-11-13T03:19:53.731Z,99.99
2022-11-13T03:20:53.716Z,99.99
2022-11-13T03:21:53.666Z,99.99
2022-11-13T03:22:53.697Z,99.99
2022-11-13T03:23:53.603Z,99.99
2022-11-13T03:24:53.565Z,99.99
2022-11-13T03:25:53.533Z,99.99
2022-11-13T03:26:53.516Z,99.99
2022-11-13T03:27:53.486Z,99.99
2022-11-13T03:28:53.512Z,99.99
2022-11-13T03:29:53.399Z,99.99
2022-11-13T03:30:53.366Z,99.99
2022-11-13T03:31:53.414Z,99.99
2022-11-13T03:32:53.308Z,99.99
2022-11-13T03:33:53.262Z,99.99
2022-11-13T03:34:53.292Z,99.99
2022-11-13T03:35:53.199Z,99.99
2022-11-13T03:36:53.164Z,99.99
2022-11-13T03:37:53.141Z,99.99
2022-11-13T03:38:53.153Z,99.99
2022-11-13T03:39:53.076Z,99.99
2022-11-13T03:40:53.085Z,99.99
2022-11-13T03:41:52.991Z,99.99
2022-11-13T03:42:52.973Z,99.99
2022-11-13T03:43:52.919Z,99.99
2022-11-13T03:44:52.890Z,99.99
2022-11-13T03:45:52.855Z,99.99
2022-11-13T03:46:52.867Z,99.99
2022-11-13T03:47:52.857Z,99.99
2022-11-13T03:48:52.751Z,99.99
2022-11-13T03:49:52.722Z,99.99
2022-11-13T03:50:52.685Z,99.99
2022-11-13T03:51:53.089Z,99.99
2022-11-13T03:52:52.618Z,99.99
2022-11-13T03:53:52.589Z,99.99
2022-11-13T03:54:52.552Z,99.99
2022-11-13T03:55:52.518Z,99.99
2022-11-13T03:56:52.531Z,99.99
2022-11-13T03:57:52.454Z,99.99
2022-11-13T03:58:52.413Z,99.99
2022-11-13T03:59:52.380Z,99.99
2022-11-13T04:00:52.370Z,99.99
2022-11-13T04:01:52.492Z,99.99
2022-11-13T04:02:52.291Z,99.99
2022-11-13T04:03:52.321Z,99.99
2022-11-13T04:04:52.215Z,99.99
2022-11-13T04:05:52.177Z,99.99
2022-11-13T04:06:52.260Z,99.99
2022-11-13T04:07:52.169Z,99.99
2022-11-13T04:08:52.088Z,99.99
2022-11-13T04:09:52.048Z,99.99
2022-11-13T04:10:52.015Z,99.99
2022-11-13T04:11:51.975Z,99.99
2022-11-13T04:12:51.941Z,99.99
2022-11-13T04:13:51.968Z,99.99
2022-11-13T04:14:51.881Z,99.99
2022-11-13T04:15:51.843Z,99.99
2022-11-13T04:16:51.810Z,99.99
2022-11-13T04:17:51.779Z,99.99
2022-11-13T04:18:51.802Z,99.99
2022-11-13T04:19:51.773Z,99.99
2022-11-13T04:20:51.674Z,99.99
2022-11-13T04:21:52.543Z,99.99
2022-11-13T04:22:51.607Z,99.99
2022-11-13T04:23:51.634Z,99.99
2022-11-13T04:24:51.600Z,99.99
2022-11-13T04:25:51.505Z,99.99
2022-11-13T04:26:51.470Z,99.99
2022-11-13T04:27:51.443Z,99.99
2022-11-13T04:28:51.481Z,99.99
2022-11-13T04:29:51.374Z,99.99
2022-11-13T04:30:51.340Z,99.99
2022-11-13T04:31:51.308Z,99.99
2022-11-13T04:32:51.274Z,99.99
2022-11-13T04:33:51.237Z,99.99
2022-11-13T04:34:51.284Z,99.99
2022-11-13T04:35:51.238Z,99.99
2022-11-13T04:36:51.142Z,99.99
2022-11-13T04:37:51.107Z,99.99
2022-11-13T04:38:51.071Z,99.99
2022-11-13T04:39:51.039Z,99.99
2022-11-13T04:40:51.067Z,99.99
2022-11-13T04:41:55.126Z,99.99
2022-11-13T04:42:50.985Z,99.99
2022-11-13T04:43:50.910Z,99.99
2022-11-13T04:44:50.868Z,99.99
2022-11-13T04:45:50.835Z,99.99
2022-11-13T04:46:50.874Z,99.99
2022-11-13T04:47:50.793Z,99.99
2022-11-13T04:48:50.754Z,99.99
2022-11-13T04:49:50.707Z,99.99
2022-11-13T04:50:50.672Z,99.99
2022-11-13T04:51:51.632Z,99.99
2022-11-13T04:52:50.675Z,99.99
2022-11-13T04:53:50.568Z,99.99
2022-11-13T04:54:50.547Z,99.99
2022-11-13T04:55:50.498Z,99.99
2022-11-13T04:56:50.467Z,99.99
2022-11-13T04:57:50.434Z,99.99
2022-11-13T04:58:50.456Z,99.99
2022-11-13T04:59:50.365Z,99.99
2022-11-13T05:00:50.341Z,99.99
2022-11-13T05:01:50.322Z,99.99
2022-11-13T05:02:50.934Z,99.99
2022-11-13T05:03:50.236Z,99.99
2022-11-13T05:04:50.203Z,99.99
2022-11-13T05:05:50.170Z,99.99
2022-11-13T05:06:50.161Z,99.99
2022-11-13T05:07:50.166Z,99.99
2022-11-13T05:08:50.171Z,99.99
2022-11-13T05:09:50.030Z,99.99
2022-11-13T05:10:49.999Z,99.99
2022-11-13T05:11:49.974Z,99.99
2022-11-13T05:12:49.935Z,99.99
2022-11-13T05:13:49.903Z,99.99
2022-11-13T05:14:49.929Z,99.99
2022-11-13T05:15:49.826Z,99.99
2022-11-13T05:16:49.795Z,99.99
2022-11-13T05:17:49.763Z,99.99
2022-11-13T05:18:50.434Z,99.99
2022-11-13T05:19:49.702Z,99.99
2022-11-13T05:20:49.663Z,99.99
2022-11-13T05:21:49.632Z,99.99
2022-11-13T05:22:49.593Z,99.99
2022-11-13T05:23:49.627Z,99.99
2022-11-13T05:24:49.601Z,99.99
2022-11-13T05:25:49.498Z,99.99
2022-11-13T05:26:49.465Z,99.99
2022-11-13T05:27:49.436Z,99.99
2022-11-13T05:28:49.393Z,99.99
2022-11-13T05:29:49.361Z,99.99
2022-11-13T05:30:49.411Z,99.99
2022-11-13T05:31:49.292Z,99.99
2022-11-13T05:32:49.270Z,99.99
2022-11-13T05:33:49.230Z,99.99
2022-11-13T05:34:49.195Z,99.99
2022-11-13T05:35:49.160Z,99.99
2022-11-13T05:36:49.195Z,99.99
2022-11-13T05:37:49.095Z,99.99
2022-11-13T05:38:49.058Z,99.99
2022-11-13T05:39:49.098Z,99.99
2022-11-13T05:40:49.006Z,99.99
2022-11-13T05:41:48.956Z,99.99
2022-11-13T05:42:48.980Z,99.99
2022-11-13T05:43:48.891Z,99.99
2022-11-13T05:44:48.937Z,99.99
2022-11-13T05:45:48.822Z,99.99
2022-11-13T05:46:48.791Z,99.99
2022-11-13T05:47:48.756Z,99.99
2022-11-13T05:48:48.727Z,99.99
2022-11-13T05:49:48.691Z,99.99
2022-11-13T05:50:48.708Z,99.99
2022-11-13T05:51:48.697Z,99.99
2022-11-13T05:52:48.592Z,99.99
2022-11-13T05:53:48.557Z,99.99
2022-11-13T05:54:48.530Z,99.99
2022-11-13T05:55:48.565Z,99.99
2022-11-13T05:56:48.460Z,99.99
2022-11-13T05:57:48.476Z,99.99
2022-11-13T05:58:48.388Z,99.99
2022-11-13T05:59:48.356Z,99.99
2022-11-13T06:00:48.325Z,99.99
2022-11-13T06:01:48.362Z,99.99
2022-11-13T06:02:49.942Z,99.99
2022-11-13T06:03:48.226Z,99.99
2022-11-13T06:04:50.525Z,99.99
2022-11-13T06:05:48.153Z,99.99
2022-11-13T06:06:48.191Z,99.99
2022-11-13T06:07:48.946Z,99.99
2022-11-13T06:08:48.127Z,99.99
2022-11-13T06:09:48.026Z,99.99
2022-11-13T06:10:47.991Z,99.99
2022-11-13T06:11:48.027Z,99.99
2022-11-13T06:12:47.926Z,99.99
2022-11-13T06:13:47.892Z,99.99
2022-11-13T06:14:47.923Z,99.99
2022-11-13T06:15:47.821Z,99.99
2022-11-13T06:16:47.787Z,99.99
2022-11-13T06:17:47.752Z,99.99
2022-11-13T06:18:47.727Z,99.99
2022-11-13T06:19:47.689Z,99.99
2022-11-13T06:20:47.724Z,99.99
2022-11-13T06:21:47.621Z,99.99
2022-11-13T06:22:47.590Z,99.99
2022-11-13T06:23:47.558Z,99.99
2022-11-13T06:24:47.527Z,99.99
2022-11-13T06:25:47.564Z,99.99
2022-11-13T06:26:47.523Z,99.99
2022-11-13T06:27:47.493Z,99.99
2022-11-13T06:28:47.390Z,99.99
2022-11-13T06:29:47.359Z,99.99
2022-11-13T06:30:47.343Z,99.99
2022-11-13T06:31:47.293Z,99.99
2022-11-13T06:32:47.320Z,99.99
2022-11-13T06:33:47.224Z,99.99
2022-11-13T06:34:47.187Z,99.99
2022-11-13T06:35:47.174Z,99.99
2022-11-13T06:36:47.127Z,99.99
2022-11-13T06:37:47.088Z,99.99
2022-11-13T06:38:47.131Z,99.99
2022-11-13T06:39:47.093Z,99.99
2022-11-13T06:40:46.983Z,99.99
2022-11-13T06:41:46.957Z,99.99
2022-11-13T06:42:46.926Z,99.99
2022-11-13T06:43:46.964Z,99.99
2022-11-13T06:44:46.856Z,99.99
2022-11-13T06:45:46.892Z,99.99
2022-11-13T06:46:46.789Z,99.99
2022-11-13T06:47:46.759Z,99.99
2022-11-13T06:48:46.723Z,99.99
2022-11-13T06:49:46.688Z,99.99
2022-11-13T06:50:48.611Z,99.99
2022-11-13T06:51:46.698Z,99.99
2022-11-13T06:52:46.593Z,99.99
2022-11-13T06:53:46.554Z,99.99
2022-11-13T06:54:46.520Z,99.99
2022-11-13T06:55:46.490Z,99.99
2022-11-13T06:56:46.454Z,99.99
2022-11-13T06:57:46.483Z,99.99
2022-11-13T06:58:46.388Z,99.99
2022-11-13T06:59:46.427Z,99.99
2022-11-13T07:00:46.394Z,99.99
2022-11-13T07:01:46.289Z,99.99
2022-11-13T07:02:46.252Z,99.99
2022-11-13T07:03:46.288Z,99.99
2022-11-13T07:04:46.187Z,99.99
2022-11-13T07:05:46.159Z,99.99
2022-11-13T07:06:46.142Z,99.99
2022-11-13T07:07:46.093Z,99.99
2022-11-13T07:08:46.058Z,99.99
2022-11-13T07:09:46.093Z,99.99
2022-11-13T07:10:45.987Z,99.99
2022-11-13T07:11:45.953Z,99.99
2022-11-13T07:12:48.413Z,99.99
2022-11-13T07:13:45.902Z,99.99
2022-11-13T07:14:45.853Z,99.99
2022-11-13T07:15:45.958Z,99.99
2022-11-13T07:17:08.026Z,99.99
2022-11-13T07:17:45.757Z,99.99
2022-11-13T07:18:45.725Z,99.99
2022-11-13T07:19:45.698Z,99.99
2022-11-13T07:20:45.652Z,99.99
2022-11-13T07:21:45.692Z,99.99
2022-11-13T07:22:45.591Z,99.99
2022-11-13T07:23:45.568Z,99.99
2022-11-13T07:24:45.523Z,99.99
2022-11-13T07:25:45.497Z,99.99
2022-11-13T07:26:45.457Z,99.99
2022-11-13T07:27:45.483Z,99.99
2022-11-13T07:28:46.079Z,99.99
2022-11-13T07:29:45.369Z,99.99
2022-11-13T07:30:45.325Z,99.99
2022-11-13T07:31:45.383Z,99.99
2022-11-13T07:32:45.269Z,99.99
2022-11-13T07:33:45.292Z,99.99
2022-11-13T07:34:45.193Z,99.99
2022-11-13T07:35:45.161Z,99.99
2022-11-13T07:36:45.127Z,99.99
2022-11-13T07:37:45.095Z,99.99
2022-11-13T07:38:45.055Z,99.99
2022-11-13T07:39:45.094Z,99.99
2022-11-13T07:40:45.053Z,99.99
2022-11-13T07:41:44.969Z,99.99
2022-11-13T07:42:44.925Z,99.99
2022-11-13T07:43:44.904Z,99.99
2022-11-13T07:45:00.161Z,99.99
2022-11-13T07:45:44.879Z,99.99
2022-11-13T07:46:44.801Z,99.99
2022-11-13T07:47:45.696Z,99.99
2022-11-13T07:48:44.787Z,99.99
2022-11-13T07:49:44.714Z,99.99
2022-11-13T07:50:44.663Z,99.99
2022-11-13T07:51:44.630Z,99.99
2022-11-13T07:52:44.600Z,99.99
2022-11-13T07:53:44.636Z,99.99
2022-11-13T07:54:44.530Z,99.99
2022-11-13T07:55:44.502Z,99.99
2022-11-13T07:56:44.468Z,99.99
2022-11-13T07:57:44.441Z,99.99
2022-11-13T07:58:44.396Z,99.99
2022-11-13T07:59:44.449Z,99.99
2022-11-13T08:00:44.423Z,99.99
2022-11-13T08:01:44.311Z,99.99
2022-11-13T08:02:44.267Z,99.99
2022-11-13T08:03:44.302Z,99.99
2022-11-13T08:04:44.199Z,99.99
2022-11-13T08:05:44.229Z,99.99
2022-11-13T08:06:44.177Z,99.99
2022-11-13T08:07:48.597Z,99.99
2022-11-13T08:08:44.068Z,99.99
2022-11-13T08:09:44.051Z,99.99
2022-11-13T08:10:44.003Z,99.99
2022-11-13T08:11:44.031Z,99.99
2022-11-13T08:12:43.933Z,99.99
2022-11-13T08:13:43.900Z,99.99
2022-11-13T08:14:43.875Z,99.99
2022-11-13T08:15:43.842Z,99.99
2022-11-13T08:16:43.866Z,99.99
2022-11-13T08:17:43.824Z,99.99
2022-11-13T08:18:43.817Z,99.99
2022-11-13T08:19:43.821Z,99.99
2022-11-13T08:20:43.675Z,99.99
2022-11-13T08:21:44.174Z,99.71
2022-11-13T08:22:43.614Z,99.99
2022-11-13T08:23:43.624Z,99.99
2022-11-13T08:24:43.557Z,99.99
2022-11-13T08:25:43.622Z,99.99
2022-11-13T08:26:43.506Z,99.99
2022-11-13T08:27:44.477Z,99.99
2022-11-13T08:28:43.485Z,99.99
2022-11-13T08:29:43.387Z,99.99
2022-11-13T08:30:43.341Z,99.98
2022-11-13T08:31:43.310Z,99.98
2022-11-13T08:32:43.273Z,99.99
2022-11-13T08:33:43.322Z,99.46
2022-11-13T08:34:43.209Z,99.66
2022-11-13T08:35:43.248Z,99.66
2022-11-13T08:36:44.087Z,99.99
2022-11-13T08:37:43.110Z,99.77
2022-11-13T08:38:43.077Z,99.99
2022-11-13T08:39:43.159Z,99.99
2022-11-13T08:40:43.041Z,99.05
2022-11-13T08:41:42.989Z,99.36
2022-11-13T08:42:42.951Z,99.01
2022-11-13T08:43:42.911Z,99.15
2022-11-13T08:44:42.884Z,98.70
2022-11-13T08:45:42.918Z,99.36
2022-11-13T08:46:42.815Z,99.31
2022-11-13T08:47:42.780Z,99.99
2022-11-13T08:48:42.761Z,99.11
2022-11-13T08:49:42.724Z,99.21
2022-11-13T08:50:42.724Z,98.39
2022-11-13T08:51:42.801Z,98.70
2022-11-13T08:52:42.614Z,98.39
2022-11-13T08:53:42.585Z,98.90
2022-11-13T08:54:42.553Z,98.45
2022-11-13T08:55:42.518Z,98.96
2022-11-13T08:56:42.484Z,98.65
2022-11-13T08:57:42.525Z,97.94
2022-11-13T08:58:42.439Z,98.19
2022-11-13T08:59:42.405Z,97.74
2022-11-13T09:00:42.351Z,97.53
2022-11-13T09:01:42.322Z,97.53
2022-11-13T09:02:42.289Z,97.74
2022-11-13T09:03:42.369Z,98.14
2022-11-13T09:04:42.229Z,98.55
2022-11-13T09:05:42.198Z,97.63
2022-11-13T09:06:42.192Z,97.63
2022-11-13T09:07:42.198Z,97.74
2022-11-13T09:08:42.092Z,97.83
2022-11-13T09:09:42.991Z,97.42
2022-11-13T09:10:42.025Z,97.42
2022-11-13T09:11:42.000Z,97.74
2022-11-13T09:12:41.966Z,97.94
2022-11-13T09:13:45.102Z,97.63
2022-11-13T09:14:41.891Z,97.74
2022-11-13T09:15:41.923Z,97.63
2022-11-13T09:16:41.830Z,97.53
2022-11-13T09:17:41.799Z,97.38
2022-11-13T09:18:41.767Z,97.08
2022-11-13T09:19:41.732Z,96.46
2022-11-13T09:20:41.748Z,95.95
2022-11-13T09:21:41.738Z,96.67
2022-11-13T09:22:41.641Z,96.46
2022-11-13T09:23:41.669Z,96.87
2022-11-13T09:24:41.569Z,97.08
2022-11-13T09:25:41.542Z,96.36
2022-11-13T09:27:56.034Z,96.36
2022-11-13T09:28:55.937Z,95.70
2022-11-13T09:29:55.973Z,95.23
2022-11-13T09:30:55.868Z,95.95
2022-11-13T09:31:55.837Z,95.13
2022-11-13T09:32:55.800Z,95.03
2022-11-13T09:33:56.615Z,95.34
2022-11-13T09:34:55.737Z,96.11
2022-11-13T09:35:55.704Z,95.34
2022-11-13T09:36:55.675Z,95.03
2022-11-13T09:37:55.641Z,95.23
2022-11-13T09:38:55.739Z,95.34
2022-11-13T09:39:55.575Z,95.09
2022-11-13T09:40:55.543Z,95.09
2022-11-13T09:41:55.513Z,94.89
2022-11-13T09:42:55.482Z,95.29
2022-11-13T09:43:59.728Z,95.50
2022-11-13T09:44:55.486Z,94.89
2022-11-13T09:45:55.386Z,94.58
2022-11-13T09:46:55.402Z,94.07
2022-11-13T09:47:55.318Z,94.68
2022-11-13T09:48:55.284Z,94.37
2022-11-13T09:49:55.257Z,93.96
2022-11-13T09:50:55.222Z,93.76
2022-11-13T09:51:55.259Z,93.86
2022-11-13T09:52:55.155Z,93.96
2022-11-13T09:53:55.189Z,93.35
2022-11-13T09:54:55.206Z,94.17
2022-11-13T09:55:55.086Z,93.86
2022-11-13T09:56:55.030Z,93.86
2022-11-13T09:57:54.995Z,93.76
2022-11-13T09:58:54.962Z,93.35
2022-11-13T09:59:54.996Z,94.78
2022-11-13T10:00:54.922Z,94.33
2022-11-13T10:01:54.868Z,93.71
2022-11-13T10:02:54.835Z,93.62
2022-11-13T10:04:01.488Z,93.47
2022-11-13T10:04:54.854Z,93.77
2022-11-13T10:05:54.742Z,92.96
2022-11-13T10:06:54.837Z,93.06
2022-11-13T10:07:54.683Z,93.16
2022-11-13T10:08:54.651Z,92.55
2022-11-13T10:09:54.615Z,93.26
2022-11-13T10:10:56.054Z,92.55
2022-11-13T10:11:54.548Z,92.55
2022-11-13T10:12:54.526Z,91.98
2022-11-13T10:13:54.487Z,91.94
2022-11-13T10:14:54.478Z,91.53
2022-11-13T10:15:54.491Z,92.24
2022-11-13T10:16:54.391Z,91.83
2022-11-13T10:17:56.677Z,91.22
2022-11-13T10:18:54.326Z,91.53
2022-11-13T10:19:54.290Z,91.79
2022-11-13T10:20:54.269Z,91.59
2022-11-13T10:22:07.596Z,92.20
2022-11-13T10:22:54.197Z,91.49
2022-11-13T10:23:54.169Z,91.18
2022-11-13T10:24:54.159Z,91.59
2022-11-13T10:25:54.106Z,91.18
2022-11-13T10:26:54.133Z,90.94
2022-11-13T10:27:54.143Z,90.53
2022-11-13T10:28:54.135Z,90.22
2022-11-13T10:29:54.003Z,90.83
2022-11-13T10:30:53.954Z,90.32
2022-11-13T10:31:53.950Z,90.06
2022-11-13T10:32:53.889Z,89.96
2022-11-13T10:33:53.925Z,90.22
2022-11-13T10:34:53.811Z,90.12
2022-11-13T10:35:53.785Z,90.47
2022-11-13T10:36:53.751Z,90.83
2022-11-13T10:37:53.720Z,90.42
2022-11-13T10:38:53.689Z,89.71
2022-11-13T10:39:53.715Z,89.61
2022-11-13T10:40:53.629Z,89.86
2022-11-13T10:41:53.606Z,90.16
2022-11-13T10:42:53.625Z,89.75
2022-11-13T10:43:53.528Z,89.90
2022-11-13T10:44:53.500Z,89.45
2022-11-13T10:45:53.541Z,89.65
2022-11-13T10:46:53.441Z,89.96
2022-11-13T10:48:07.174Z,89.81
2022-11-13T10:48:53.371Z,88.63
2022-11-13T10:49:53.357Z,88.59
2022-11-13T10:50:53.392Z,88.39
2022-11-13T10:51:53.291Z,88.39
2022-11-13T10:52:53.245Z,87.26
2022-11-13T10:53:53.217Z,87.37
2022-11-13T10:54:53.183Z,88.12
2022-11-13T10:55:53.168Z,88.18
2022-11-13T10:56:53.188Z,87.82
2022-11-13T10:57:56.398Z,87.77
2022-11-13T10:58:53.124Z,87.77
2022-11-13T10:59:53.032Z,86.96
2022-11-13T11:00:53.108Z,86.76
2022-11-13T11:01:53.012Z,87.20
2022-11-13T11:02:53.026Z,86.76
2022-11-13T11:03:52.915Z,87.06
2022-11-13T11:04:52.938Z,87.26
2022-11-13T11:05:52.852Z,86.45
2022-11-13T11:07:20.330Z,86.76
2022-11-13T11:07:52.785Z,87.23
2022-11-13T11:08:52.798Z,87.02
2022-11-13T11:09:57.519Z,86.51
2022-11-13T11:10:52.681Z,86.57
2022-11-13T11:11:52.659Z,87.08
2022-11-13T11:12:52.615Z,86.94
2022-11-13T11:13:52.650Z,85.55
2022-11-13T11:14:52.621Z,85.41
2022-11-13T11:15:52.531Z,85.37
2022-11-13T11:16:52.485Z,85.37
2022-11-13T11:17:52.499Z,85.37
2022-11-13T11:18:52.495Z,85.78
2022-11-13T11:19:52.396Z,83.64
2022-11-13T11:20:52.364Z,84.09
2022-11-13T11:21:52.332Z,84.70
2022-11-13T11:22:52.298Z,84.15
2022-11-13T11:23:55.971Z,83.98
2022-11-13T11:24:52.244Z,83.98
2022-11-13T11:25:52.213Z,84.09
2022-11-13T11:26:52.179Z,84.80
2022-11-13T11:27:52.239Z,85.31
2022-11-13T11:28:52.136Z,83.95
2022-11-13T11:29:52.093Z,85.68
2022-11-13T11:30:52.127Z,83.64
2022-11-13T11:31:52.098Z,83.23
2022-11-13T11:32:51.990Z,83.54
2022-11-13T11:33:51.962Z,83.95
2022-11-13T11:34:57.827Z,83.74
2022-11-13T11:35:51.896Z,83.91
2022-11-13T11:36:51.870Z,83.20
2022-11-13T11:37:51.899Z,83.40
2022-11-13T11:38:51.808Z,82.48
2022-11-13T11:39:51.783Z,82.07
2022-11-13T11:40:51.777Z,82.59
2022-11-13T11:41:51.799Z,82.07
2022-11-13T11:42:51.762Z,82.59
2022-11-13T11:43:51.658Z,82.18
2022-11-13T11:44:51.651Z,82.52
2022-11-13T11:45:51.595Z,82.05
2022-11-13T11:46:51.632Z,82.90
2022-11-13T11:47:51.537Z,84.23
2022-11-13T11:48:51.556Z,84.03
2022-11-13T11:49:51.555Z,84.03
2022-11-13T11:50:51.429Z,84.12
2022-11-13T11:51:51.405Z,83.96
2022-11-13T11:52:51.374Z,84.27
2022-11-13T11:53:51.340Z,84.37
2022-11-13T11:54:51.323Z,84.11
2022-11-13T11:55:51.350Z,84.34
2022-11-13T11:56:51.257Z,85.02
2022-11-13T11:57:51.221Z,84.92
2022-11-13T11:58:51.189Z,85.53
2022-11-13T11:59:51.160Z,85.53
2022-11-13T12:00:51.135Z,85.13
2022-11-13T12:01:51.167Z,85.02
2022-11-13T12:02:51.122Z,84.92
2022-11-13T12:03:51.045Z,84.98
2022-11-13T12:04:51.028Z,85.39
2022-11-13T12:05:50.969Z,84.67
2022-11-13T12:06:51.049Z,84.27
2022-11-13T12:07:50.925Z,85.49
2022-11-13T12:08:50.895Z,85.49
2022-11-13T12:09:50.840Z,84.88
2022-11-13T12:10:50.808Z,85.60
2022-11-13T12:11:50.837Z,85.13
2022-11-13T12:12:50.750Z,85.68
2022-11-13T12:13:50.733Z,85.53
2022-11-13T12:14:50.677Z,86.15
2022-11-13T12:15:50.653Z,85.47
2022-11-13T12:16:50.630Z,86.29
2022-11-13T12:17:50.651Z,85.77
2022-11-13T12:18:50.676Z,85.47
2022-11-13T12:19:50.589Z,85.47
2022-11-13T12:20:50.524Z,85.88
2022-11-13T12:21:50.471Z,85.88
2022-11-13T12:22:50.470Z,85.68
2022-11-13T12:23:50.407Z,85.47
2022-11-13T12:24:50.383Z,85.68
2022-11-13T12:25:50.402Z,85.71
2022-11-13T12:26:50.318Z,86.02
2022-11-13T12:27:50.270Z,86.33
2022-11-13T12:28:50.237Z,86.73
2022-11-13T12:29:50.215Z,86.22
2022-11-13T12:30:50.235Z,86.73
2022-11-13T12:31:50.162Z,86.63
2022-11-13T12:32:50.111Z,86.88
2022-11-13T12:33:50.074Z,87.08
2022-11-13T12:34:50.118Z,87.14
2022-11-13T12:35:50.062Z,87.29
2022-11-13T12:36:49.987Z,87.90
2022-11-13T12:37:50.019Z,88.20
2022-11-13T12:38:49.923Z,88.92
2022-11-13T12:39:49.879Z,88.61
2022-11-13T12:40:49.857Z,88.61
2022-11-13T12:41:49.814Z,87.49
2022-11-13T12:42:49.797Z,88.00
2022-11-13T12:43:49.819Z,87.12
2022-11-13T12:44:49.735Z,87.94
2022-11-13T12:45:49.698Z,87.94
2022-11-13T12:46:49.673Z,88.45
2022-11-13T12:47:49.632Z,88.24
2022-11-13T12:48:49.590Z,88.35
2022-11-13T12:49:49.624Z,88.04
2022-11-13T12:50:49.602Z,88.14
2022-11-13T12:51:49.523Z,88.14
2022-11-13T12:52:49.471Z,88.41